createdAt,value
2019-03-11T00:02:19.811Z,29.02
2019-03-11T00:05:02.510Z,28.30
2019-03-11T00:07:52.359Z,28.90
2019-03-11T00:10:47.642Z,28.65
2019-03-11T00:13:42.345Z,28.02
2019-03-11T00:16:31.407Z,28.38
2019-03-11T00:19:14.902Z,28.67
2019-03-11T00:22:10.840Z,28.25
2019-03-11T00:25:00.538Z,27.35
2019-03-11T00:27:36.984Z,27.52
2019-03-11T00:30:27.057Z,26.93
2019-03-11T00:33:03.935Z,26.80
2019-03-11T00:35:53.926Z,28.12
2019-03-11T00:38:36.377Z,27.48
2019-03-11T00:41:19.958Z,26.27
2019-03-11T00:44:08.751Z,26.02
2019-03-11T00:46:45.233Z,26.87
2019-03-11T00:49:34.132Z,27.22
2019-03-11T00:52:10.080Z,26.68
2019-03-11T00:55:00.444Z,25.52
2019-03-11T00:57:36.443Z,25.50
2019-03-11T01:03:13.040Z,25.82
2019-03-11T01:06:03.178Z,26.73
2019-03-11T01:08:58.836Z,26.20
2019-03-11T01:11:50.058Z,25.37
2019-03-11T01:14:26.981Z,25.30
2019-03-11T01:17:18.055Z,25.17
2019-03-11T01:19:54.866Z,25.48
2019-03-11T01:22:45.737Z,24.57
2019-03-11T01:25:22.239Z,25.08
2019-03-11T01:28:11.785Z,24.02
2019-03-11T01:30:54.450Z,25.40
2019-03-11T01:33:49.860Z,25.43
2019-03-11T01:36:45.825Z,26.00
2019-03-11T01:39:40.884Z,25.68
2019-03-11T01:42:23.810Z,24.43
2019-03-11T01:45:14.192Z,25.30
2019-03-11T01:48:09.507Z,26.30
2019-03-11T01:51:00.143Z,25.75
2019-03-11T01:53:36.822Z,25.40
2019-03-11T01:56:27.464Z,24.92
2019-03-11T01:59:04.129Z,25.40
2019-03-11T02:01:53.277Z,25.72
2019-03-11T02:04:30.193Z,24.92
2019-03-11T02:07:26.538Z,23.60
2019-03-11T02:10:27.756Z,23.45
2019-03-11T02:13:23.080Z,25.52
2019-03-11T02:16:12.007Z,24.35
2019-03-11T02:18:55.169Z,24.30
2019-03-11T02:21:50.261Z,24.63
2019-03-11T02:24:40.436Z,24.35
2019-03-11T02:27:23.969Z,24.87
2019-03-11T02:30:24.071Z,25.17
2019-03-11T02:33:18.909Z,25.27
2019-03-11T02:36:16.214Z,24.55
2019-03-11T02:39:12.709Z,24.67
2019-03-11T02:42:08.243Z,24.40
2019-03-11T02:44:50.691Z,23.73
2019-03-11T02:47:40.168Z,23.45
2019-03-11T02:50:22.967Z,23.18
2019-03-11T02:53:12.629Z,23.20
2019-03-11T02:55:51.257Z,22.20
2019-03-11T02:58:40.559Z,23.25
2019-03-11T03:01:27.791Z,23.02
2019-03-11T03:04:12.402Z,24.77
2019-03-11T03:06:56.147Z,24.05
2019-03-11T03:09:51.295Z,24.27
2019-03-11T03:12:46.676Z,24.82
2019-03-11T03:15:42.696Z,25.12
2019-03-11T03:18:39.100Z,25.30
2019-03-11T03:21:28.542Z,25.75
2019-03-11T03:24:04.701Z,23.95
2019-03-11T03:26:55.153Z,25.85
2019-03-11T03:29:39.803Z,24.92
2019-03-11T03:32:35.408Z,25.75
2019-03-11T03:35:24.465Z,24.50
2019-03-11T03:38:01.391Z,24.80
2019-03-11T03:40:50.927Z,24.80
2019-03-11T03:43:27.065Z,23.25
2019-03-11T03:46:19.444Z,22.73
2019-03-11T03:48:56.090Z,24.07
2019-03-11T03:51:46.510Z,25.12
2019-03-11T03:54:30.134Z,23.87
2019-03-11T03:57:19.323Z,23.27
2019-03-11T04:00:02.912Z,23.15
2019-03-11T04:02:47.854Z,23.75
2019-03-11T04:05:31.308Z,23.18
2019-03-11T04:08:15.021Z,23.60
2019-03-11T04:11:11.016Z,22.77
2019-03-11T04:14:00.401Z,22.75
2019-03-11T04:16:37.135Z,23.90
2019-03-11T04:19:29.414Z,26.02
2019-03-11T04:22:18.452Z,25.00
2019-03-11T04:25:01.376Z,25.32
2019-03-11T04:27:45.067Z,25.08
2019-03-11T04:30:35.768Z,24.18
2019-03-11T04:33:12.597Z,23.85
2019-03-11T04:36:02.109Z,23.83
2019-03-11T04:38:38.951Z,23.73
2019-03-11T04:41:29.175Z,23.57
2019-03-11T04:44:12.398Z,23.07
2019-03-11T04:47:07.659Z,23.05
2019-03-11T04:49:57.247Z,22.90
2019-03-11T04:52:33.660Z,23.73
2019-03-11T04:55:24.288Z,22.30
2019-03-11T04:58:08.165Z,23.35
2019-03-11T05:01:04.267Z,24.18
2019-03-11T05:03:54.560Z,23.57
2019-03-11T05:06:37.258Z,23.90
2019-03-11T05:09:32.557Z,24.65
2019-03-11T05:12:27.608Z,24.43
2019-03-11T05:15:17.889Z,23.22
2019-03-11T05:18:00.618Z,24.67
2019-03-11T05:20:55.989Z,23.80
2019-03-11T05:23:38.568Z,24.85
2019-03-11T05:26:30.157Z,24.90
2019-03-11T05:29:06.533Z,25.08
2019-03-11T05:31:56.541Z,26.90
2019-03-11T05:34:32.819Z,25.77
2019-03-11T05:37:22.273Z,26.57
2019-03-11T05:39:58.463Z,25.82
2019-03-11T05:42:48.585Z,27.35
2019-03-11T05:45:32.009Z,25.35
2019-03-11T05:48:21.529Z,26.35
2019-03-11T05:51:05.345Z,26.93
2019-03-11T05:53:54.535Z,27.17
2019-03-11T05:56:38.480Z,26.70
2019-03-11T05:59:20.760Z,26.45
2019-03-11T06:02:04.155Z,26.93
2019-03-11T06:04:47.328Z,27.00
2019-03-11T06:07:30.500Z,27.10
2019-03-11T06:10:16.179Z,26.62
2019-03-11T06:12:59.574Z,27.07
2019-03-11T06:15:49.474Z,27.90
2019-03-11T06:18:44.452Z,26.20
2019-03-11T06:21:45.583Z,26.82
2019-03-11T06:24:21.584Z,25.72
2019-03-11T06:27:11.147Z,26.30
2019-03-11T06:29:47.642Z,25.27
2019-03-11T06:32:37.564Z,26.07
2019-03-11T06:35:14.272Z,26.82
2019-03-11T06:38:03.678Z,26.80
2019-03-11T06:40:39.914Z,27.42
2019-03-11T06:43:29.730Z,26.57
2019-03-11T06:46:13.452Z,26.57
2019-03-11T06:49:03.097Z,26.62
2019-03-11T06:51:46.327Z,27.82
2019-03-11T06:54:30.145Z,28.52
2019-03-11T06:57:14.049Z,28.23
2019-03-11T07:00:04.211Z,27.77
2019-03-11T07:02:41.072Z,27.45
2019-03-11T07:05:29.814Z,27.40
2019-03-11T07:08:12.868Z,28.98
2019-03-11T07:10:55.830Z,29.18
2019-03-11T07:13:40.769Z,29.48
2019-03-11T07:16:23.873Z,29.23
2019-03-11T07:19:08.086Z,30.25
2019-03-11T07:21:56.773Z,29.65
2019-03-11T07:24:40.705Z,29.90
2019-03-11T07:27:23.277Z,28.57
2019-03-11T07:30:06.395Z,27.45
2019-03-11T07:32:48.727Z,29.75
2019-03-11T07:35:31.875Z,31.17
2019-03-11T07:38:13.968Z,30.45
2019-03-11T07:40:58.059Z,36.88
2019-03-11T07:43:40.935Z,40.63
2019-03-11T07:46:24.384Z,37.78
2019-03-11T07:49:13.291Z,32.13
2019-03-11T07:51:49.636Z,35.28
2019-03-11T07:54:40.696Z,35.75
2019-03-11T07:57:23.931Z,38.23
2019-03-11T08:00:07.017Z,36.63
2019-03-11T08:02:50.474Z,37.08
2019-03-11T08:05:34.222Z,35.45
2019-03-11T08:08:18.042Z,34.67
2019-03-11T08:11:01.219Z,96.60
2019-03-11T08:13:45.398Z,35.55
2019-03-11T08:16:28.736Z,35.30
2019-03-11T08:19:12.462Z,34.43
2019-03-11T08:21:54.817Z,34.88
2019-03-11T08:24:38.430Z,35.10
2019-03-11T08:27:21.123Z,34.90
2019-03-11T08:30:04.645Z,34.18
2019-03-11T08:32:54.379Z,35.48
2019-03-11T08:35:31.199Z,36.28
2019-03-11T08:38:21.186Z,36.15
2019-03-11T08:41:04.474Z,35.92
2019-03-11T08:43:47.225Z,35.58
2019-03-11T08:46:31.111Z,36.83
2019-03-11T08:49:20.639Z,36.05
2019-03-11T08:52:05.372Z,35.73
2019-03-11T08:54:47.752Z,34.85
2019-03-11T08:57:31.784Z,35.35
2019-03-11T09:00:27.841Z,36.35
2019-03-11T09:03:11.367Z,37.15
2019-03-11T09:05:55.161Z,36.80
2019-03-11T09:08:39.071Z,36.63
2019-03-11T09:11:28.943Z,36.48
2019-03-11T09:14:12.804Z,38.30
2019-03-11T09:17:03.155Z,36.77
2019-03-11T09:19:39.379Z,36.40
2019-03-11T09:22:29.505Z,39.70
2019-03-11T09:25:09.720Z,38.15
2019-03-11T09:27:59.511Z,38.90
2019-03-11T09:30:35.445Z,38.28
2019-03-11T09:33:24.635Z,38.02
2019-03-11T09:36:00.610Z,36.88
2019-03-11T09:38:49.840Z,38.55
2019-03-11T09:41:26.221Z,40.65
2019-03-11T09:44:16.390Z,36.17
2019-03-11T09:47:06.193Z,35.38
2019-03-11T09:49:42.292Z,35.33
2019-03-11T09:52:32.767Z,36.30
2019-03-11T09:55:09.902Z,35.92
2019-03-11T09:57:53.095Z,36.03
2019-03-11T10:00:39.072Z,36.85
2019-03-11T10:03:21.634Z,35.78
2019-03-11T10:06:04.742Z,37.08
2019-03-11T10:08:48.160Z,36.60
2019-03-11T10:11:37.224Z,37.05
2019-03-11T10:14:27.928Z,37.03
2019-03-11T10:17:11.287Z,36.98
2019-03-11T10:20:00.903Z,36.08
2019-03-11T10:22:43.749Z,33.70
2019-03-11T10:25:33.291Z,36.85
2019-03-11T10:28:10.104Z,38.13
2019-03-11T10:30:59.647Z,35.88
2019-03-11T10:33:43.303Z,34.48
2019-03-11T10:36:33.074Z,32.78
2019-03-11T10:39:09.631Z,34.15
2019-03-11T10:41:59.211Z,29.27
2019-03-11T10:44:35.948Z,30.00
2019-03-11T10:47:24.880Z,30.72
2019-03-11T10:50:07.458Z,29.00
2019-03-11T10:52:51.117Z,28.70
2019-03-11T10:55:34.547Z,24.87
2019-03-11T10:58:18.549Z,26.45
2019-03-11T11:01:09.610Z,28.62
2019-03-11T11:03:45.922Z,27.70
2019-03-11T11:06:36.519Z,25.95
2019-03-11T11:09:12.698Z,27.17
2019-03-11T11:12:02.344Z,24.20
2019-03-11T11:14:45.418Z,22.22
2019-03-11T11:17:40.969Z,21.95
2019-03-11T11:20:37.415Z,21.55
2019-03-11T11:23:32.869Z,21.42
2019-03-11T11:26:22.254Z,20.77
2019-03-11T11:29:05.412Z,21.17
2019-03-11T11:32:00.581Z,20.15
2019-03-11T11:34:55.877Z,19.48
2019-03-11T11:37:46.065Z,20.40
2019-03-11T11:40:25.714Z,17.75
2019-03-11T11:43:15.983Z,16.70
2019-03-11T11:45:59.534Z,17.00
2019-03-11T11:48:55.465Z,17.70
2019-03-11T11:51:45.645Z,17.73
2019-03-11T11:54:29.710Z,22.58
2019-03-11T11:57:25.820Z,22.95
2019-03-11T12:00:25.413Z,23.20
2019-03-11T12:03:09.240Z,23.95
2019-03-11T12:06:04.254Z,23.20
2019-03-11T12:08:59.822Z,21.02
2019-03-11T12:11:51.133Z,20.20
2019-03-11T12:14:29.159Z,18.77
2019-03-11T12:17:24.724Z,20.65
2019-03-11T12:20:20.124Z,16.27
2019-03-11T12:22:56.256Z,16.23
2019-03-11T12:25:45.788Z,17.10
2019-03-11T12:28:23.270Z,9.05
2019-03-11T12:31:13.346Z,6.30
2019-03-11T12:33:49.853Z,6.60
2019-03-11T12:36:39.706Z,7.10
2019-03-11T12:39:16.409Z,6.15
2019-03-11T12:42:05.933Z,6.62
2019-03-11T12:44:49.416Z,5.62
2019-03-11T12:47:38.703Z,4.87
2019-03-11T12:50:21.069Z,2.98
2019-03-11T12:53:11.697Z,2.62
2019-03-11T12:55:55.198Z,2.90
2019-03-11T12:58:50.342Z,2.77
2019-03-11T13:01:39.400Z,3.20
2019-03-11T13:04:22.487Z,2.50
2019-03-11T13:07:11.691Z,1.92
2019-03-11T13:09:55.232Z,1.55
2019-03-11T13:12:44.807Z,0.98
2019-03-11T13:15:28.606Z,1.45
2019-03-11T13:18:50.710Z,0.90
2019-03-11T13:21:39.841Z,0.70
2019-03-11T13:24:23.438Z,0.70
2019-03-11T13:27:18.930Z,4.37
2019-03-11T13:30:08.147Z,1.25
2019-03-11T13:32:44.962Z,0.80
2019-03-11T13:35:34.791Z,1.17
2019-03-11T13:38:11.857Z,0.42
2019-03-11T13:41:02.731Z,0.50
2019-03-11T13:43:39.425Z,0.55
2019-03-11T13:46:29.098Z,0.40
2019-03-11T13:49:12.347Z,0.50
2019-03-11T13:52:01.797Z,0.50
2019-03-11T13:54:38.240Z,0.90
2019-03-11T13:57:28.685Z,0.80
2019-03-11T14:00:04.908Z,0.80
2019-03-11T14:02:54.478Z,0.47
2019-03-11T14:05:37.271Z,0.42
2019-03-11T14:08:26.916Z,0.30
2019-03-11T14:11:09.658Z,0.20
2019-03-11T14:14:05.676Z,0.30
2019-03-11T14:17:01.651Z,0.30
2019-03-11T14:19:57.086Z,0.30
2019-03-11T14:22:46.557Z,0.30
2019-03-11T14:25:23.470Z,0.35
2019-03-11T14:28:14.253Z,0.40
2019-03-11T14:30:56.953Z,0.30
2019-03-11T14:33:46.052Z,0.40
2019-03-11T14:36:22.996Z,0.20
2019-03-11T14:39:13.681Z,0.30
2019-03-11T14:41:57.054Z,0.35
2019-03-11T14:44:52.136Z,0.80
2019-03-11T14:47:41.821Z,0.60
2019-03-11T14:50:26.103Z,0.50
2019-03-11T14:53:15.732Z,0.53
2019-03-11T14:55:52.191Z,0.50
2019-03-11T14:58:42.352Z,0.50
2019-03-11T15:01:19.216Z,0.60
2019-03-11T15:04:09.652Z,0.30
2019-03-11T15:06:46.428Z,0.78
2019-03-11T15:09:36.042Z,0.55
2019-03-11T15:12:18.652Z,0.60
2019-03-11T15:15:13.811Z,0.60
2019-03-11T15:18:09.212Z,0.50
2019-03-11T15:21:04.361Z,0.40
2019-03-11T15:23:53.761Z,0.53
2019-03-11T15:26:36.366Z,0.40
2019-03-11T15:29:20.144Z,0.40
2019-03-11T15:32:02.903Z,0.53
2019-03-11T15:34:46.505Z,0.40
2019-03-11T15:37:36.101Z,1.05
2019-03-11T15:40:14.718Z,0.47
2019-03-11T15:43:04.812Z,0.40
2019-03-11T15:45:41.498Z,0.50
2019-03-11T15:48:30.679Z,0.40
2019-03-11T15:51:07.350Z,0.40
2019-03-11T15:53:57.404Z,0.53
2019-03-11T15:56:41.005Z,0.65
2019-03-11T15:59:23.600Z,0.55
2019-03-11T16:02:07.553Z,0.80
2019-03-11T16:04:56.920Z,1.17
2019-03-11T16:07:40.692Z,0.80
2019-03-11T16:10:30.220Z,0.90
2019-03-11T16:13:13.222Z,0.65
2019-03-11T16:16:02.511Z,0.47
2019-03-11T16:18:51.466Z,0.60
2019-03-11T16:21:46.347Z,0.50
2019-03-11T16:24:35.703Z,0.40
2019-03-11T16:27:19.456Z,0.50
2019-03-11T16:30:08.980Z,0.40
2019-03-11T16:32:59.243Z,0.78
2019-03-11T16:35:49.554Z,0.28
2019-03-11T16:38:45.624Z,0.40
2019-03-11T16:41:41.550Z,0.23
2019-03-11T16:44:30.332Z,0.40
2019-03-11T16:47:13.535Z,0.60
2019-03-11T16:50:09.055Z,0.60
2019-03-11T16:53:04.260Z,0.72
2019-03-11T16:55:59.610Z,0.35
2019-03-11T16:58:43.538Z,0.70
2019-03-11T17:01:26.695Z,0.28
2019-03-11T17:04:09.605Z,0.50
2019-03-11T17:07:00.667Z,0.40
2019-03-11T17:09:43.479Z,0.25
2019-03-11T17:12:27.403Z,0.30
2019-03-11T17:15:10.952Z,0.60
2019-03-11T17:17:53.827Z,0.60
2019-03-11T17:20:43.586Z,0.30
2019-03-11T17:23:20.433Z,0.50
2019-03-11T17:26:10.760Z,0.40
2019-03-11T17:29:05.665Z,0.30
2019-03-11T17:31:55.128Z,0.35
2019-03-11T17:34:32.113Z,0.30
2019-03-11T17:37:22.069Z,0.20
2019-03-11T17:39:58.624Z,0.23
2019-03-11T17:42:49.312Z,0.40
2019-03-11T17:45:32.772Z,0.30
2019-03-11T17:48:22.931Z,0.30
2019-03-11T17:50:59.394Z,0.30
2019-03-11T17:53:49.257Z,0.20
2019-03-11T17:56:32.935Z,0.20
2019-03-11T17:59:28.037Z,0.35
2019-03-11T18:02:23.822Z,0.50
2019-03-11T18:05:19.211Z,0.50
2019-03-11T18:08:08.377Z,0.30
2019-03-11T18:10:44.361Z,0.37
2019-03-11T18:13:34.503Z,0.25
2019-03-11T18:16:16.587Z,0.40
2019-03-11T18:19:00.371Z,0.30
2019-03-11T18:21:50.203Z,0.40
2019-03-11T18:24:26.521Z,0.40
2019-03-11T18:27:16.408Z,0.50
2019-03-11T18:29:52.808Z,0.45
2019-03-11T18:32:41.894Z,0.30
2019-03-11T18:35:36.803Z,0.70
2019-03-11T18:38:26.147Z,0.53
2019-03-11T18:41:02.054Z,0.30
2019-03-11T18:43:52.489Z,0.40
2019-03-11T18:46:34.630Z,0.40
2019-03-11T18:49:17.681Z,0.30
2019-03-11T18:52:00.118Z,0.33
2019-03-11T18:54:43.722Z,0.50
2019-03-11T18:57:32.987Z,0.57
2019-03-11T19:00:32.288Z,0.37
2019-03-11T19:03:21.447Z,0.40
2019-03-11T19:06:04.989Z,1.40
2019-03-11T19:08:54.730Z,0.40
2019-03-11T19:11:38.451Z,0.85
2019-03-11T19:14:34.236Z,0.90
2019-03-11T19:17:29.415Z,0.57
2019-03-11T19:20:28.536Z,0.80
2019-03-11T19:23:23.509Z,1.32
2019-03-11T19:26:18.523Z,0.80
2019-03-11T19:29:13.731Z,0.60
2019-03-11T19:32:03.580Z,0.88
2019-03-11T19:34:40.448Z,0.30
2019-03-11T19:37:29.655Z,0.65
2019-03-11T19:40:06.680Z,0.30
2019-03-11T19:42:57.165Z,0.35
2019-03-11T19:45:33.166Z,1.70
2019-03-11T19:48:22.643Z,0.70
2019-03-11T19:50:58.787Z,6.58
2019-03-11T19:53:48.156Z,1.02
2019-03-11T19:56:25.118Z,0.50
2019-03-11T19:59:15.046Z,0.57
2019-03-11T20:01:53.127Z,0.50
2019-03-11T20:04:43.007Z,0.50
2019-03-11T20:07:26.514Z,0.78
2019-03-11T20:10:23.686Z,0.50
2019-03-11T20:13:19.740Z,0.50
2019-03-11T20:16:14.842Z,84.00
2019-03-11T20:19:10.909Z,23.90
2019-03-11T20:22:07.827Z,20.10
2019-03-11T20:25:04.555Z,0.90
2019-03-11T20:28:00.448Z,0.75
2019-03-11T20:30:57.155Z,0.50
2019-03-11T20:33:46.527Z,0.60
2019-03-11T20:36:25.077Z,1.20
2019-03-11T20:39:15.937Z,1.42
2019-03-11T20:41:52.823Z,0.40
2019-03-11T20:44:42.807Z,0.40
2019-03-11T20:47:20.276Z,0.50
2019-03-11T20:50:10.862Z,0.40
2019-03-11T20:52:53.581Z,0.60
2019-03-11T20:55:49.947Z,0.80
2019-03-11T20:58:46.419Z,0.98
2019-03-11T21:01:36.536Z,0.50
2019-03-11T21:04:13.357Z,0.60
2019-03-11T21:07:03.541Z,0.30
2019-03-11T21:09:40.559Z,0.62
2019-03-11T21:12:31.077Z,0.50
2019-03-11T21:15:22.787Z,0.60
2019-03-11T21:17:59.641Z,0.40
2019-03-11T21:20:49.785Z,0.47
2019-03-11T21:23:32.824Z,0.50
2019-03-11T21:26:28.187Z,0.50
2019-03-11T21:29:24.488Z,0.40
2019-03-11T21:32:20.406Z,0.47
2019-03-11T21:35:15.644Z,0.60
2019-03-11T21:38:05.534Z,0.37
2019-03-11T21:40:42.128Z,0.53
2019-03-11T21:43:31.507Z,0.60
2019-03-11T21:46:08.213Z,0.60
2019-03-11T21:48:58.918Z,0.50
2019-03-11T21:51:42.051Z,0.47
2019-03-11T21:54:32.991Z,0.40
2019-03-11T21:57:16.692Z,0.42
2019-03-11T22:00:13.554Z,0.50
2019-03-11T22:03:03.758Z,0.42
2019-03-11T22:05:46.587Z,0.40
2019-03-11T22:08:42.644Z,0.30
2019-03-11T22:11:32.683Z,0.40
2019-03-11T22:14:17.505Z,0.45
2019-03-11T22:17:07.334Z,0.40
2019-03-11T22:19:44.192Z,0.30
2019-03-11T22:22:33.895Z,0.35
2019-03-11T22:25:17.748Z,0.40
2019-03-11T22:28:12.876Z,0.50
2019-03-11T22:31:08.386Z,0.68
2019-03-11T22:34:05.756Z,0.40
2019-03-11T22:36:56.153Z,0.42
2019-03-11T22:39:33.083Z,0.50
2019-03-11T22:42:22.933Z,0.20
2019-03-11T22:44:59.128Z,0.23
2019-03-11T22:47:49.682Z,0.40
2019-03-11T22:50:25.729Z,0.40
2019-03-11T22:53:15.528Z,0.40
2019-03-11T22:55:52.497Z,0.30
2019-03-11T22:58:42.686Z,0.30
2019-03-11T23:01:26.231Z,0.33
2019-03-11T23:04:21.940Z,0.47
2019-03-11T23:07:17.348Z,0.35
2019-03-11T23:10:07.111Z,0.60
2019-03-11T23:12:49.810Z,0.30
2019-03-11T23:15:39.416Z,0.30
2019-03-11T23:18:16.247Z,0.40
2019-03-11T23:21:06.697Z,0.80
2019-03-11T23:23:50.067Z,0.33
2019-03-11T23:26:45.253Z,0.40
2019-03-11T23:29:40.325Z,0.40
2019-03-11T23:32:35.906Z,0.60
2019-03-11T23:35:25.194Z,0.65
2019-03-11T23:38:01.771Z,0.45
2019-03-11T23:40:51.976Z,0.50
2019-03-11T23:43:34.547Z,0.50
2019-03-11T23:46:29.426Z,0.40
2019-03-11T23:49:19.548Z,0.40
2019-03-11T23:51:55.522Z,0.50
2019-03-11T23:54:46.035Z,0.37
2019-03-11T23:57:22.091Z,0.40
